createdAt,value
2022-09-01T00:00:15.477Z,2.70
2022-09-01T00:02:45.391Z,2.60
2022-09-01T00:05:14.966Z,2.90
2022-09-01T00:07:48.822Z,2.80
2022-09-01T00:10:18.775Z,2.60
2022-09-01T00:12:48.605Z,2.90
2022-09-01T00:15:17.540Z,3.00
2022-09-01T00:17:48.696Z,2.80
2022-09-01T00:20:20.863Z,3.33
2022-09-01T00:22:53.154Z,2.90
2022-09-01T00:25:24.879Z,2.83
2022-09-01T00:27:54.486Z,3.07
2022-09-01T00:30:25.914Z,2.80
2022-09-01T00:32:54.477Z,3.00
2022-09-01T00:35:23.233Z,2.70
2022-09-01T00:37:53.464Z,3.10
2022-09-01T00:40:24.068Z,2.93
2022-09-01T00:42:53.847Z,3.10
2022-09-01T00:45:24.014Z,2.90
2022-09-01T00:47:53.985Z,2.80
2022-09-01T00:50:22.546Z,2.87
2022-09-01T00:52:53.207Z,2.80
2022-09-01T00:55:25.554Z,2.80
2022-09-01T00:57:55.449Z,2.83
2022-09-01T01:00:25.189Z,2.83
2022-09-01T01:02:56.439Z,2.60
2022-09-01T01:05:28.086Z,3.00
2022-09-01T01:07:59.745Z,2.63
2022-09-01T01:10:28.732Z,3.07
2022-09-01T01:12:57.283Z,2.80
2022-09-01T01:15:27.137Z,2.67
2022-09-01T01:17:56.212Z,2.50
2022-09-01T01:20:45.414Z,2.70
2022-09-01T01:23:19.779Z,2.73
2022-09-01T01:25:51.375Z,2.57
2022-09-01T01:28:22.559Z,2.70
2022-09-01T01:30:54.777Z,2.67
2022-09-01T01:33:27.031Z,2.90
2022-09-01T01:35:57.744Z,2.87
2022-09-01T01:38:28.265Z,2.63
2022-09-01T01:41:01.502Z,2.60
2022-09-01T01:43:30.875Z,2.83
2022-09-01T01:46:02.899Z,2.87
2022-09-01T01:48:37.996Z,2.70
2022-09-01T01:51:07.833Z,2.60
2022-09-01T01:53:36.691Z,3.10
2022-09-01T01:56:09.377Z,2.60
2022-09-01T01:58:39.234Z,2.80
2022-09-01T02:01:13.301Z,2.60
2022-09-01T02:03:41.978Z,2.77
2022-09-01T02:06:12.217Z,2.50
2022-09-01T02:08:42.528Z,2.90
2022-09-01T02:11:13.301Z,3.30
2022-09-01T02:13:41.616Z,3.07
2022-09-01T02:16:13.628Z,2.70
2022-09-01T02:18:44.547Z,2.47
2022-09-01T02:21:18.503Z,3.23
2022-09-01T02:23:47.378Z,2.80
2022-09-01T02:26:19.115Z,2.60
2022-09-01T02:28:54.845Z,2.80
2022-09-01T02:31:32.364Z,3.20
2022-09-01T02:34:02.305Z,3.17
2022-09-01T02:36:33.028Z,2.93
2022-09-01T02:39:02.596Z,2.90
2022-09-01T02:41:32.884Z,2.93
2022-09-01T02:44:02.842Z,2.90
2022-09-01T02:46:31.898Z,2.80
2022-09-01T02:49:04.689Z,3.07
2022-09-01T02:51:33.507Z,2.60
2022-09-01T02:54:06.791Z,2.70
2022-09-01T02:56:39.405Z,2.63
2022-09-01T02:59:12.054Z,3.00
2022-09-01T03:01:41.190Z,2.90
2022-09-01T03:04:10.381Z,2.90
2022-09-01T03:06:39.618Z,3.07
2022-09-01T03:09:14.839Z,2.90
2022-09-01T03:11:48.485Z,3.03
2022-09-01T03:14:18.733Z,3.07
2022-09-01T03:16:47.013Z,3.03
2022-09-01T03:19:16.743Z,2.90
2022-09-01T03:21:49.045Z,2.67
2022-09-01T03:24:22.596Z,2.60
2022-09-01T03:26:58.483Z,2.70
2022-09-01T03:29:27.098Z,2.50
2022-09-01T03:31:56.963Z,2.57
2022-09-01T03:34:26.810Z,2.77
2022-09-01T03:36:56.507Z,2.80
2022-09-01T03:39:30.642Z,3.10
2022-09-01T03:42:01.642Z,3.40
2022-09-01T03:44:29.996Z,3.20
2022-09-01T03:46:58.805Z,3.00
2022-09-01T03:49:31.563Z,3.40
2022-09-01T03:52:00.460Z,3.13
2022-09-01T03:54:30.773Z,3.10
2022-09-01T03:57:03.092Z,2.90
2022-09-01T03:59:32.764Z,3.10
2022-09-01T04:02:02.956Z,2.97
2022-09-01T04:04:33.216Z,3.70
2022-09-01T04:07:02.157Z,2.93
2022-09-01T04:09:32.687Z,3.10
2022-09-01T04:12:03.290Z,3.10
2022-09-01T04:14:36.368Z,2.70
2022-09-01T04:17:28.635Z,3.00
2022-09-01T04:19:59.466Z,3.10
2022-09-01T04:22:32.680Z,3.10
2022-09-01T04:25:04.280Z,3.20
2022-09-01T04:27:34.246Z,3.53
2022-09-01T04:30:04.119Z,3.17
2022-09-01T04:32:37.969Z,2.67
2022-09-01T04:35:08.199Z,2.70
2022-09-01T04:37:36.716Z,2.80
2022-09-01T04:40:06.533Z,2.67
2022-09-01T04:42:37.481Z,2.90
2022-09-01T04:45:11.289Z,3.30
2022-09-01T04:47:45.638Z,2.90
2022-09-01T04:50:19.199Z,3.00
2022-09-01T04:53:07.342Z,3.17
2022-09-01T04:55:43.832Z,2.90
2022-09-01T04:58:17.609Z,3.73
2022-09-01T05:00:48.307Z,3.20
2022-09-01T05:03:21.759Z,3.20
2022-09-01T05:06:03.836Z,2.90
2022-09-01T05:08:36.375Z,3.47
2022-09-01T05:11:16.984Z,3.83
2022-09-01T05:13:49.694Z,3.53
2022-09-01T05:16:25.006Z,3.57
2022-09-01T05:18:58.293Z,3.40
2022-09-01T05:21:34.363Z,3.17
2022-09-01T05:24:08.219Z,3.00
2022-09-01T05:26:41.014Z,3.43
2022-09-01T05:29:16.156Z,3.40
2022-09-01T05:31:50.508Z,3.27
2022-09-01T05:34:27.160Z,3.33
2022-09-01T05:37:02.135Z,3.63
2022-09-01T05:39:30.518Z,3.23
2022-09-01T05:42:09.436Z,3.30
2022-09-01T05:44:44.302Z,3.27
2022-09-01T05:47:21.309Z,3.77
2022-09-01T05:49:56.020Z,3.77
2022-09-01T05:52:26.651Z,3.90
2022-09-01T05:55:00.284Z,3.90
2022-09-01T05:57:35.631Z,3.53
2022-09-01T06:00:17.278Z,3.60
2022-09-01T06:02:51.605Z,3.67
2022-09-01T06:05:23.861Z,3.93
2022-09-01T06:07:57.389Z,3.63
2022-09-01T06:10:27.307Z,3.20
2022-09-01T06:12:57.004Z,3.50
2022-09-01T06:15:29.767Z,3.33
2022-09-01T06:18:01.038Z,3.53
2022-09-01T06:20:31.880Z,2.83
2022-09-01T06:23:01.310Z,2.90
2022-09-01T06:25:30.745Z,3.03
2022-09-01T06:28:04.608Z,2.90
2022-09-01T06:30:36.953Z,2.83
2022-09-01T06:33:14.775Z,2.80
2022-09-01T06:35:48.539Z,2.83
2022-09-01T06:38:20.921Z,2.40
2022-09-01T06:40:55.788Z,2.60
2022-09-01T06:43:25.743Z,2.50
2022-09-01T06:45:55.675Z,2.80
2022-09-01T06:48:32.988Z,2.40
2022-09-01T06:51:19.491Z,2.43
2022-09-01T06:53:57.548Z,2.13
2022-09-01T06:56:32.278Z,2.17
2022-09-01T06:59:22.936Z,2.07
2022-09-01T07:02:01.395Z,2.20
2022-09-01T07:04:50.877Z,2.00
2022-09-01T07:10:25.706Z,2.03
2022-09-01T07:13:12.459Z,1.97
2022-09-01T07:18:44.666Z,2.03
2022-09-01T07:22:06.265Z,2.00
2022-09-01T07:24:18.869Z,2.00
2022-09-01T07:27:11.002Z,2.10
2022-09-01T07:29:41.903Z,2.00
2022-09-01T07:35:06.683Z,1.93
2022-09-01T07:43:47.329Z,2.10
2022-09-01T07:46:37.256Z,2.10
2022-09-01T07:52:02.143Z,2.00
2022-09-01T07:54:34.580Z,2.40
2022-09-01T07:57:04.290Z,1.97
2022-09-01T07:59:36.739Z,2.30
2022-09-01T08:02:18.645Z,2.47
2022-09-01T08:04:51.151Z,1.83
2022-09-01T08:07:21.437Z,2.10
2022-09-01T08:09:50.264Z,1.70
2022-09-01T08:12:18.794Z,1.90
2022-09-01T08:17:58.373Z,1.80
2022-09-01T08:20:31.436Z,2.20
2022-09-01T08:23:26.954Z,2.00
2022-09-01T08:25:57.008Z,1.77
2022-09-01T08:28:26.711Z,2.13
2022-09-01T08:30:57.134Z,1.70
2022-09-01T08:33:27.126Z,2.10
2022-09-01T08:35:57.215Z,2.00
2022-09-01T08:38:28.977Z,2.10
2022-09-01T08:40:58.707Z,2.10
2022-09-01T08:43:40.086Z,2.23
2022-09-01T08:46:11.369Z,1.90
2022-09-01T08:51:47.591Z,1.80
2022-09-01T08:54:32.059Z,1.93
2022-09-01T08:57:03.863Z,1.60
2022-09-01T08:59:50.956Z,1.93
2022-09-01T09:02:41.301Z,1.73
2022-09-01T09:05:25.198Z,1.80
2022-09-01T09:11:59.461Z,1.50
2022-09-01T09:14:55.444Z,1.60
2022-09-01T09:17:26.588Z,1.50
2022-09-01T09:19:54.817Z,1.53
2022-09-01T09:22:23.781Z,1.70
2022-09-01T09:24:56.425Z,1.50
2022-09-01T09:27:26.896Z,2.00
2022-09-01T09:29:58.221Z,1.80
2022-09-01T09:33:11.729Z,1.70
2022-09-01T09:35:34.326Z,1.67
2022-09-01T09:38:21.685Z,2.03
2022-09-01T09:43:51.023Z,1.50
2022-09-01T09:46:27.690Z,2.37
2022-09-01T09:49:14.729Z,2.10
2022-09-01T09:51:44.540Z,1.87
2022-09-01T09:54:15.056Z,1.90
2022-09-01T09:56:44.651Z,1.80
2022-09-01T09:59:54.155Z,1.63
2022-09-01T10:02:28.483Z,1.50
2022-09-01T10:04:57.327Z,1.53
2022-09-01T10:07:29.583Z,1.90
2022-09-01T10:09:59.017Z,1.70
2022-09-01T10:12:29.060Z,1.90
2022-09-01T10:15:00.561Z,1.60
2022-09-01T10:17:36.700Z,1.60
2022-09-01T10:20:17.333Z,1.27
2022-09-01T10:22:48.586Z,1.63
2022-09-01T10:25:21.053Z,1.40
2022-09-01T10:27:51.170Z,1.60
2022-09-01T10:30:24.359Z,1.53
2022-09-01T10:33:01.556Z,1.63
2022-09-01T10:35:39.829Z,1.60
2022-09-01T10:38:11.948Z,1.60
2022-09-01T10:40:48.995Z,1.30
2022-09-01T10:43:42.763Z,1.60
2022-09-01T10:46:51.512Z,1.60
2022-09-01T10:50:07.017Z,1.43
2022-09-01T10:52:55.670Z,1.50
2022-09-01T10:55:29.484Z,1.53
2022-09-01T10:59:29.911Z,1.40
2022-09-01T11:01:34.877Z,1.50
2022-09-01T11:03:57.108Z,1.40
2022-09-01T11:07:17.236Z,1.50
2022-09-01T11:10:31.344Z,1.50
2022-09-01T11:13:32.535Z,1.47
2022-09-01T11:16:49.722Z,1.20
2022-09-01T11:19:33.521Z,1.23
2022-09-01T11:22:26.627Z,1.30
2022-09-01T11:25:38.578Z,1.47
2022-09-01T11:28:35.289Z,1.60
2022-09-01T11:31:05.285Z,1.50
2022-09-01T11:33:46.684Z,1.50
2022-09-01T11:36:20.240Z,1.90
2022-09-01T11:38:51.573Z,1.80
2022-09-01T11:41:28.370Z,1.90
2022-09-01T11:43:59.363Z,1.70
2022-09-01T11:46:32.972Z,1.73
2022-09-01T11:49:05.643Z,1.90
2022-09-01T11:51:42.212Z,1.90
2022-09-01T11:54:14.171Z,1.80
2022-09-01T11:56:42.739Z,2.00
2022-09-01T11:59:11.010Z,2.03
2022-09-01T12:01:40.697Z,1.80
2022-09-01T12:04:23.438Z,1.73
2022-09-01T12:06:58.366Z,1.80
2022-09-01T12:09:36.315Z,1.80
2022-09-01T12:12:06.352Z,1.77
2022-09-01T12:14:55.019Z,1.90
2022-09-01T12:17:23.967Z,1.63
2022-09-01T12:19:54.772Z,1.80
2022-09-01T12:22:23.522Z,1.70
2022-09-01T12:24:56.067Z,1.70
2022-09-01T12:27:24.536Z,1.63
2022-09-01T12:29:52.769Z,1.60
2022-09-01T12:32:21.023Z,1.40
2022-09-01T12:35:10.944Z,1.77
2022-09-01T12:37:39.832Z,1.47
2022-09-01T12:40:25.518Z,1.60
2022-09-01T12:42:55.343Z,1.40
2022-09-01T12:45:44.394Z,1.40
2022-09-01T12:48:29.477Z,1.50
2022-09-01T12:50:59.599Z,1.40
2022-09-01T12:53:30.557Z,1.50
2022-09-01T12:56:23.133Z,1.60
2022-09-01T12:58:53.918Z,1.67
2022-09-01T13:01:28.362Z,1.50
2022-09-01T13:04:19.647Z,1.50
2022-09-01T13:06:55.079Z,1.77
2022-09-01T13:09:24.310Z,1.70
2022-09-01T13:12:11.640Z,1.50
2022-09-01T13:14:46.114Z,1.50
2022-09-01T13:17:17.097Z,1.73
2022-09-01T13:19:45.939Z,1.80
2022-09-01T13:22:18.402Z,1.60
2022-09-01T13:24:49.451Z,1.70
2022-09-01T13:27:22.335Z,1.70
2022-09-01T13:29:54.594Z,1.57
2022-09-01T13:32:24.617Z,1.60
2022-09-01T13:34:57.294Z,1.53
2022-09-01T13:37:35.015Z,1.43
2022-09-01T13:40:06.031Z,1.53
2022-09-01T13:42:54.590Z,1.60
2022-09-01T13:45:25.095Z,1.50
2022-09-01T13:53:34.249Z,1.70
2022-09-01T13:56:05.636Z,1.80
2022-09-01T13:58:39.230Z,1.50
2022-09-01T14:01:08.007Z,1.50
2022-09-01T14:03:37.781Z,1.83
2022-09-01T14:06:08.581Z,1.57
2022-09-01T14:08:42.545Z,1.40
2022-09-01T14:11:17.713Z,1.40
2022-09-01T14:13:47.845Z,1.50
2022-09-01T14:16:22.032Z,1.77
2022-09-01T14:18:50.967Z,1.33
2022-09-01T14:21:19.250Z,1.40
2022-09-01T14:23:51.440Z,1.40
2022-09-01T14:26:19.764Z,1.20
2022-09-01T14:28:49.732Z,1.53
2022-09-01T14:31:18.971Z,1.20
2022-09-01T14:33:47.391Z,1.40
2022-09-01T14:36:19.169Z,1.43
2022-09-01T14:38:52.996Z,1.60
2022-09-01T14:41:27.156Z,1.40
2022-09-01T14:44:02.763Z,1.30
2022-09-01T14:46:34.419Z,1.40
2022-09-01T14:49:03.069Z,1.50
2022-09-01T14:54:23.674Z,1.50
2022-09-01T14:59:41.617Z,1.50
2022-09-01T15:02:10.420Z,1.33
2022-09-01T15:04:39.996Z,1.57
2022-09-01T15:07:08.170Z,1.50
2022-09-01T15:09:37.832Z,1.60
2022-09-01T15:12:06.793Z,1.40
2022-09-01T15:14:36.270Z,1.33
2022-09-01T15:17:07.173Z,1.40
2022-09-01T15:19:36.366Z,1.70
2022-09-01T15:22:04.731Z,1.50
2022-09-01T15:24:34.111Z,1.40
2022-09-01T15:27:03.107Z,1.50
2022-09-01T15:29:34.645Z,1.37
2022-09-01T15:32:06.570Z,1.30
2022-09-01T15:34:34.745Z,1.43
2022-09-01T15:37:04.562Z,1.40
2022-09-01T15:39:37.739Z,1.40
2022-09-01T15:42:08.427Z,1.20
2022-09-01T15:44:37.814Z,1.60
2022-09-01T15:47:07.832Z,1.70
2022-09-01T15:49:37.741Z,1.60
2022-09-01T15:52:06.017Z,1.70
2022-09-01T15:54:34.524Z,1.70
2022-09-01T15:57:03.001Z,1.70
2022-09-01T15:59:32.654Z,1.60
2022-09-01T16:02:04.852Z,1.70
2022-09-01T16:04:38.733Z,1.53
2022-09-01T16:07:08.272Z,1.60
2022-09-01T16:09:38.290Z,1.57
2022-09-01T16:12:08.695Z,1.50
2022-09-01T16:14:39.677Z,1.47
2022-09-01T16:17:12.670Z,1.50
2022-09-01T16:19:50.511Z,1.70
2022-09-01T16:22:23.727Z,1.50
2022-09-01T16:24:54.417Z,1.80
2022-09-01T16:27:24.634Z,1.77
2022-09-01T16:29:55.389Z,1.80
2022-09-01T16:32:24.617Z,1.80
2022-09-01T16:34:54.616Z,1.97
2022-09-01T16:37:39.342Z,1.70
2022-09-01T16:40:16.425Z,1.90
2022-09-01T16:42:57.858Z,1.57
2022-09-01T16:45:34.518Z,1.40
2022-09-01T16:48:10.135Z,1.20
2022-09-01T16:50:43.067Z,1.63
2022-09-01T16:53:23.970Z,1.60
2022-09-01T16:56:03.452Z,1.33
2022-09-01T16:59:07.219Z,1.40
2022-09-01T17:01:58.684Z,1.70
2022-09-01T17:11:39.380Z,1.50
2022-09-01T17:14:08.955Z,2.30
2022-09-01T17:16:39.808Z,2.00
2022-09-01T17:19:13.013Z,1.70
2022-09-01T17:21:43.173Z,1.80
2022-09-01T17:24:17.021Z,1.40
2022-09-01T17:26:50.916Z,1.43
2022-09-01T17:29:23.373Z,1.57
2022-09-01T17:31:58.152Z,1.83
2022-09-01T17:34:31.910Z,1.60
2022-09-01T17:37:06.724Z,1.70
2022-09-01T17:39:40.725Z,1.70
2022-09-01T17:42:15.189Z,1.57
2022-09-01T17:44:49.133Z,1.50
2022-09-01T17:47:21.804Z,1.63
2022-09-01T17:49:55.266Z,1.60
2022-09-01T17:52:27.174Z,1.50
2022-09-01T17:54:58.716Z,1.70
2022-09-01T17:57:32.107Z,1.67
2022-09-01T18:00:03.070Z,2.20
2022-09-01T18:02:58.564Z,1.53
2022-09-01T18:05:28.363Z,1.50
2022-09-01T18:08:04.295Z,1.63
2022-09-01T18:10:36.730Z,1.70
2022-09-01T18:13:12.353Z,1.63
2022-09-01T18:15:44.828Z,1.60
2022-09-01T18:18:34.867Z,1.60
2022-09-01T18:21:05.176Z,1.90
2022-09-01T18:23:34.148Z,2.00
2022-09-01T18:26:08.290Z,1.83
2022-09-01T18:28:42.301Z,1.60
2022-09-01T18:31:16.799Z,1.60
2022-09-01T18:33:47.013Z,1.63
2022-09-01T18:36:21.763Z,1.80
2022-09-01T18:38:52.097Z,2.10
2022-09-01T18:41:29.824Z,2.13
2022-09-01T18:44:04.951Z,2.23
2022-09-01T18:46:37.547Z,2.20
2022-09-01T18:49:10.710Z,2.10
2022-09-01T18:51:47.843Z,2.27
2022-09-01T18:54:17.655Z,1.90
2022-09-01T18:56:48.576Z,2.00
2022-09-01T18:59:36.984Z,1.83
2022-09-01T19:02:14.826Z,1.97
2022-09-01T19:04:46.386Z,1.60
2022-09-01T19:07:20.816Z,1.60
2022-09-01T19:09:53.875Z,1.70
2022-09-01T19:12:25.513Z,1.50
2022-09-01T19:14:59.658Z,1.97
2022-09-01T19:18:03.627Z,2.10
2022-09-01T19:20:37.994Z,2.50
2022-09-01T19:23:09.916Z,2.13
2022-09-01T19:25:42.574Z,1.97
2022-09-01T19:28:16.994Z,2.27
2022-09-01T19:30:49.620Z,1.70
2022-09-01T19:33:23.909Z,1.90
2022-09-01T19:35:55.006Z,2.10
2022-09-01T19:38:27.991Z,2.00
2022-09-01T19:41:00.131Z,2.00
2022-09-01T19:43:31.623Z,2.30
2022-09-01T19:46:07.249Z,2.40
2022-09-01T19:48:39.402Z,1.83
2022-09-01T19:51:09.825Z,2.40
2022-09-01T19:53:43.899Z,1.73
2022-09-01T19:56:15.071Z,1.83
2022-09-01T19:58:47.727Z,1.87
2022-09-01T20:01:21.879Z,1.80
2022-09-01T20:03:51.128Z,1.90
2022-09-01T20:06:21.238Z,2.03
2022-09-01T20:08:52.875Z,2.10
2022-09-01T20:11:22.757Z,2.30
2022-09-01T20:14:15.467Z,2.27
2022-09-01T20:16:49.828Z,2.00
2022-09-01T20:19:31.483Z,1.87
2022-09-01T20:22:04.874Z,2.00
2022-09-01T20:24:35.275Z,1.80
2022-09-01T20:27:05.726Z,1.97
2022-09-01T20:29:40.100Z,2.20
2022-09-01T20:32:09.969Z,2.40
2022-09-01T20:34:40.635Z,1.90
2022-09-01T20:37:11.590Z,1.93
2022-09-01T20:39:58.335Z,2.10
2022-09-01T20:42:32.671Z,1.90
2022-09-01T20:45:02.717Z,1.93
2022-09-01T20:47:32.982Z,2.00
2022-09-01T20:50:02.434Z,2.40
2022-09-01T20:52:33.906Z,2.27
2022-09-01T20:55:10.247Z,2.10
2022-09-01T20:57:40.956Z,2.07
2022-09-01T21:00:10.702Z,2.23
2022-09-01T21:02:48.250Z,2.33
2022-09-01T21:05:23.143Z,1.80
2022-09-01T21:07:57.238Z,2.00
2022-09-01T21:10:28.534Z,2.10
2022-09-01T21:13:02.726Z,1.87
2022-09-01T21:15:35.568Z,2.00
2022-09-01T21:18:13.912Z,2.00
2022-09-01T21:20:51.111Z,1.93
2022-09-01T21:23:21.315Z,1.90
2022-09-01T21:25:52.223Z,2.07
2022-09-01T21:28:28.528Z,1.80
2022-09-01T21:31:00.240Z,1.87
2022-09-01T21:33:32.113Z,2.00
2022-09-01T21:36:00.681Z,2.07
2022-09-01T21:38:29.520Z,2.00
2022-09-01T21:40:58.692Z,1.80
2022-09-01T21:43:28.345Z,1.90
2022-09-01T21:45:56.601Z,1.80
2022-09-01T21:48:25.364Z,2.30
2022-09-01T21:50:59.207Z,1.80
2022-09-01T21:53:29.295Z,1.90
2022-09-01T21:55:58.168Z,1.67
2022-09-01T21:58:26.701Z,1.83
2022-09-01T22:00:55.787Z,1.90
2022-09-01T22:03:24.236Z,1.90
2022-09-01T22:05:54.275Z,2.10
2022-09-01T22:08:23.043Z,2.10
2022-09-01T22:10:55.821Z,2.20
2022-09-01T22:13:24.806Z,2.00
2022-09-01T22:15:53.920Z,2.00
2022-09-01T22:18:23.281Z,1.90
2022-09-01T22:21:02.178Z,1.90
2022-09-01T22:23:32.822Z,1.90
2022-09-01T22:26:01.018Z,1.90
2022-09-01T22:28:31.879Z,1.97
2022-09-01T22:31:01.330Z,1.67
2022-09-01T22:33:32.830Z,1.93
2022-09-01T22:36:02.701Z,2.20
2022-09-01T22:38:31.153Z,1.70
2022-09-01T22:41:00.157Z,1.80
2022-09-01T22:43:30.671Z,1.80
2022-09-01T22:46:00.011Z,1.50
2022-09-01T22:48:28.640Z,1.80
2022-09-01T22:50:57.660Z,1.77
2022-09-01T22:53:28.362Z,1.83
2022-09-01T22:56:00.040Z,2.07
2022-09-01T22:58:29.921Z,1.70
2022-09-01T23:01:01.838Z,1.97
2022-09-01T23:03:30.230Z,1.63
2022-09-01T23:06:04.307Z,1.60
2022-09-01T23:08:34.372Z,1.50
2022-09-01T23:11:02.476Z,2.17
2022-09-01T23:13:31.236Z,1.70
2022-09-01T23:16:02.712Z,1.63
2022-09-01T23:18:31.913Z,1.53
2022-09-01T23:21:00.419Z,1.60
2022-09-01T23:23:28.845Z,1.73
2022-09-01T23:25:58.636Z,1.57
2022-09-01T23:28:27.116Z,1.70
2022-09-01T23:30:55.308Z,1.50
2022-09-01T23:33:24.282Z,1.80
2022-09-01T23:35:53.470Z,1.80
2022-09-01T23:38:22.439Z,1.70
2022-09-01T23:40:51.973Z,1.53
2022-09-01T23:43:23.988Z,1.80
2022-09-01T23:45:53.691Z,1.90
2022-09-01T23:48:21.934Z,1.60
2022-09-01T23:50:51.710Z,1.80
2022-09-01T23:53:20.997Z,1.60
2022-09-01T23:55:51.357Z,1.73
2022-09-01T23:58:19.611Z,1.70
